sensor_id;sensor_type;location;lat;lon;timestamp;pressure;altitude;pressure_sealevel;temperature;humidity
46347;BME280;32057;47.830;19.046;2023-06-04T00:01:31;100538.75;;;9.10;100.00
46347;BME280;32057;47.830;19.046;2023-06-04T00:03:56;100535.56;;;9.19;100.00
46347;BME280;32057;47.830;19.046;2023-06-04T00:06:22;100542.66;;;9.25;100.00
46347;BME280;32057;47.830;19.046;2023-06-04T00:08:48;100539.50;;;9.35;100.00
46347;BME280;32057;47.830;19.046;2023-06-04T00:11:13;100545.66;;;9.39;100.00
46347;BME280;32057;47.830;19.046;2023-06-04T00:13:38;100545.63;;;9.37;100.00
46347;BME280;32057;47.830;19.046;2023-06-04T00:16:04;100540.72;;;9.17;100.00
46347;BME280;32057;47.830;19.046;2023-06-04T00:18:30;100537.16;;;9.14;100.00
46347;BME280;32057;47.830;19.046;2023-06-04T00:20:55;100540.03;;;8.94;100.00
46347;BME280;32057;47.830;19.046;2023-06-04T00:23:20;100529.94;;;8.75;100.00
46347;BME280;32057;47.830;19.046;2023-06-04T00:25:49;100536.00;;;8.48;100.00
46347;BME280;32057;47.830;19.046;2023-06-04T00:28:14;100538.56;;;8.47;100.00
46347;BME280;32057;47.830;19.046;2023-06-04T00:30:40;100543.47;;;8.65;100.00
46347;BME280;32057;47.830;19.046;2023-06-04T00:33:05;100544.47;;;8.70;100.00
46347;BME280;32057;47.830;19.046;2023-06-04T00:35:32;100543.72;;;8.74;100.00
46347;BME280;32057;47.830;19.046;2023-06-04T00:37:57;100548.84;;;8.72;100.00
46347;BME280;32057;47.830;19.046;2023-06-04T00:40:23;100539.09;;;8.64;100.00
46347;BME280;32057;47.830;19.046;2023-06-04T00:42:48;100529.06;;;8.47;100.00
46347;BME280;32057;47.830;19.046;2023-06-04T00:45:15;100521.09;;;8.41;100.00
46347;BME280;32057;47.830;19.046;2023-06-04T00:47:41;100516.63;;;8.38;100.00
46347;BME280;32057;47.830;19.046;2023-06-04T00:50:07;100508.22;;;8.44;100.00
46347;BME280;32057;47.830;19.046;2023-06-04T00:52:33;100515.56;;;8.57;100.00
46347;BME280;32057;47.830;19.046;2023-06-04T00:54:59;100510.84;;;8.73;100.00
46347;BME280;32057;47.830;19.046;2023-06-04T00:57:24;100516.13;;;8.76;100.00
46347;BME280;32057;47.830;19.046;2023-06-04T00:59:50;100522.09;;;8.73;100.00
46347;BME280;32057;47.830;19.046;2023-06-04T01:02:18;100531.50;;;8.70;100.00
46347;BME280;32057;47.830;19.046;2023-06-04T01:05:14;100516.22;;;8.79;100.00
46347;BME280;32057;47.830;19.046;2023-06-04T01:07:42;100500.53;;;8.76;100.00
46347;BME280;32057;47.830;19.046;2023-06-04T01:10:13;100491.19;;;8.81;100.00
46347;BME280;32057;47.830;19.046;2023-06-04T01:12:43;100494.06;;;8.90;100.00
46347;BME280;32057;47.830;19.046;2023-06-04T01:15:09;100505.00;;;9.09;100.00
46347;BME280;32057;47.830;19.046;2023-06-04T01:17:47;100503.44;;;9.15;100.00
46347;BME280;32057;47.830;19.046;2023-06-04T01:20:27;100508.75;;;9.20;100.00
46347;BME280;32057;47.830;19.046;2023-06-04T01:23:14;100506.28;;;9.23;100.00
46347;BME280;32057;47.830;19.046;2023-06-04T01:25:41;100511.69;;;9.31;100.00
46347;BME280;32057;47.830;19.046;2023-06-04T01:28:10;100504.88;;;9.36;100.00
46347;BME280;32057;47.830;19.046;2023-06-04T01:30:38;100507.44;;;9.34;100.00
46347;BME280;32057;47.830;19.046;2023-06-04T01:33:09;100511.00;;;9.38;100.00
46347;BME280;32057;47.830;19.046;2023-06-04T01:35:36;100510.03;;;9.34;100.00
46347;BME280;32057;47.830;19.046;2023-06-04T01:38:01;100510.44;;;9.18;100.00
46347;BME280;32057;47.830;19.046;2023-06-04T01:40:27;100500.06;;;9.18;100.00
46347;BME280;32057;47.830;19.046;2023-06-04T01:42:53;100511.75;;;9.04;100.00
46347;BME280;32057;47.830;19.046;2023-06-04T01:45:21;100506.56;;;9.04;100.00
46347;BME280;32057;47.830;19.046;2023-06-04T01:47:46;100505.88;;;9.09;100.00
46347;BME280;32057;47.830;19.046;2023-06-04T01:50:12;100504.19;;;9.11;100.00
46347;BME280;32057;47.830;19.046;2023-06-04T01:52:39;100517.34;;;9.17;100.00
46347;BME280;32057;47.830;19.046;2023-06-04T01:55:06;100520.06;;;9.22;100.00
46347;BME280;32057;47.830;19.046;2023-06-04T01:57:33;100529.53;;;9.20;100.00
46347;BME280;32057;47.830;19.046;2023-06-04T01:59:58;100523.28;;;9.13;100.00
46347;BME280;32057;47.830;19.046;2023-06-04T02:02:24;100520.75;;;9.15;100.00
46347;BME280;32057;47.830;19.046;2023-06-04T02:04:50;100520.06;;;9.21;100.00
46347;BME280;32057;47.830;19.046;2023-06-04T02:07:18;100519.94;;;9.17;100.00
46347;BME280;32057;47.830;19.046;2023-06-04T02:09:46;100510.72;;;9.27;100.00
46347;BME280;32057;47.830;19.046;2023-06-04T02:12:11;100515.06;;;9.28;100.00
46347;BME280;32057;47.830;19.046;2023-06-04T02:14:37;100513.34;;;9.29;100.00
46347;BME280;32057;47.830;19.046;2023-06-04T02:17:03;100510.53;;;9.21;100.00
46347;BME280;32057;47.830;19.046;2023-06-04T02:19:30;100513.47;;;9.03;100.00
46347;BME280;32057;47.830;19.046;2023-06-04T02:21:59;100516.06;;;9.03;100.00
46347;BME280;32057;47.830;19.046;2023-06-04T02:24:24;100523.88;;;9.03;100.00
46347;BME280;32057;47.830;19.046;2023-06-04T02:26:50;100521.34;;;9.06;100.00
46347;BME280;32057;47.830;19.046;2023-06-04T02:29:16;100528.25;;;9.06;100.00
46347;BME280;32057;47.830;19.046;2023-06-04T02:31:41;100537.47;;;8.96;100.00
46347;BME280;32057;47.830;19.046;2023-06-04T02:34:06;100527.25;;;9.01;100.00
46347;BME280;32057;47.830;19.046;2023-06-04T02:36:32;100520.47;;;9.06;100.00
46347;BME280;32057;47.830;19.046;2023-06-04T02:38:57;100522.31;;;9.10;100.00
46347;BME280;32057;47.830;19.046;2023-06-04T02:41:23;100526.50;;;9.05;100.00
46347;BME280;32057;47.830;19.046;2023-06-04T02:43:49;100526.69;;;8.82;100.00
46347;BME280;32057;47.830;19.046;2023-06-04T02:46:14;100535.88;;;8.72;100.00
46347;BME280;32057;47.830;19.046;2023-06-04T02:48:40;100527.28;;;8.73;100.00
46347;BME280;32057;47.830;19.046;2023-06-04T02:51:05;100531.50;;;8.70;100.00
46347;BME280;32057;47.830;19.046;2023-06-04T02:53:30;100521.63;;;8.58;100.00
46347;BME280;32057;47.830;19.046;2023-06-04T02:55:56;100527.91;;;8.65;100.00
46347;BME280;32057;47.830;19.046;2023-06-04T02:58:21;100520.13;;;8.66;100.00
46347;BME280;32057;47.830;19.046;2023-06-04T03:00:52;100537.28;;;8.61;100.00
46347;BME280;32057;47.830;19.046;2023-06-04T03:03:17;100527.19;;;8.70;100.00
46347;BME280;32057;47.830;19.046;2023-06-04T03:05:43;100531.00;;;8.82;100.00
46347;BME280;32057;47.830;19.046;2023-06-04T03:08:08;100537.91;;;8.81;100.00
46347;BME280;32057;47.830;19.046;2023-06-04T03:10:34;100537.78;;;8.78;100.00
46347;BME280;32057;47.830;19.046;2023-06-04T03:12:59;100538.34;;;8.68;100.00
46347;BME280;32057;47.830;19.046;2023-06-04T03:15:24;100542.75;;;8.70;100.00
46347;BME280;32057;47.830;19.046;2023-06-04T03:17:50;100542.06;;;8.76;100.00
46347;BME280;32057;47.830;19.046;2023-06-04T03:20:16;100541.19;;;8.75;100.00
46347;BME280;32057;47.830;19.046;2023-06-04T03:22:42;100543.66;;;8.71;100.00
46347;BME280;32057;47.830;19.046;2023-06-04T03:25:08;100545.25;;;8.67;100.00
46347;BME280;32057;47.830;19.046;2023-06-04T03:27:34;100536.94;;;8.77;100.00
46347;BME280;32057;47.830;19.046;2023-06-04T03:29:59;100541.56;;;8.88;100.00
46347;BME280;32057;47.830;19.046;2023-06-04T03:32:25;100532.44;;;9.01;100.00
46347;BME280;32057;47.830;19.046;2023-06-04T03:34:50;100531.13;;;9.15;100.00
46347;BME280;32057;47.830;19.046;2023-06-04T03:37:17;100549.53;;;9.23;100.00
46347;BME280;32057;47.830;19.046;2023-06-04T03:39:42;100554.91;;;9.29;100.00
46347;BME280;32057;47.830;19.046;2023-06-04T03:42:08;100556.53;;;9.25;100.00
46347;BME280;32057;47.830;19.046;2023-06-04T03:44:33;100550.88;;;9.39;100.00
46347;BME280;32057;47.830;19.046;2023-06-04T03:46:59;100552.78;;;9.46;100.00
46347;BME280;32057;47.830;19.046;2023-06-04T03:49:24;100558.31;;;9.58;100.00
46347;BME280;32057;47.830;19.046;2023-06-04T03:51:49;100556.75;;;9.63;100.00
46347;BME280;32057;47.830;19.046;2023-06-04T03:54:15;100552.56;;;9.70;100.00
46347;BME280;32057;47.830;19.046;2023-06-04T03:56:46;100548.44;;;9.76;100.00
46347;BME280;32057;47.830;19.046;2023-06-04T03:59:12;100552.88;;;9.81;100.00
46347;BME280;32057;47.830;19.046;2023-06-04T04:01:37;100553.88;;;9.86;100.00
46347;BME280;32057;47.830;19.046;2023-06-04T04:04:04;100558.41;;;9.93;100.00
46347;BME280;32057;47.830;19.046;2023-06-04T04:06:30;100560.31;;;9.99;100.00
46347;BME280;32057;47.830;19.046;2023-06-04T04:08:55;100560.47;;;10.05;100.00
46347;BME280;32057;47.830;19.046;2023-06-04T04:11:21;100568.44;;;10.12;100.00
46347;BME280;32057;47.830;19.046;2023-06-04T04:13:47;100565.09;;;10.16;100.00
46347;BME280;32057;47.830;19.046;2023-06-04T04:16:12;100576.63;;;10.28;100.00
46347;BME280;32057;47.830;19.046;2023-06-04T04:18:42;100576.00;;;10.35;100.00
46347;BME280;32057;47.830;19.046;2023-06-04T04:21:11;100570.13;;;10.44;100.00
46347;BME280;32057;47.830;19.046;2023-06-04T04:23:38;100569.16;;;10.40;100.00
46347;BME280;32057;47.830;19.046;2023-06-04T04:26:05;100568.53;;;10.49;100.00
46347;BME280;32057;47.830;19.046;2023-06-04T04:28:31;100572.78;;;10.45;100.00
46347;BME280;32057;47.830;19.046;2023-06-04T04:30:57;100572.78;;;10.45;100.00
46347;BME280;32057;47.830;19.046;2023-06-04T04:33:24;100565.06;;;10.50;100.00
46347;BME280;32057;47.830;19.046;2023-06-04T04:35:50;100568.00;;;10.64;100.00
46347;BME280;32057;47.830;19.046;2023-06-04T04:38:18;100561.25;;;10.72;100.00
46347;BME280;32057;47.830;19.046;2023-06-04T04:40:44;100562.22;;;10.75;100.00
46347;BME280;32057;47.830;19.046;2023-06-04T04:43:12;100572.66;;;10.77;100.00
46347;BME280;32057;47.830;19.046;2023-06-04T04:45:37;100576.97;;;10.75;100.00
46347;BME280;32057;47.830;19.046;2023-06-04T04:48:03;100573.72;;;10.85;100.00
46347;BME280;32057;47.830;19.046;2023-06-04T04:50:28;100580.75;;;10.89;100.00
46347;BME280;32057;47.830;19.046;2023-06-04T04:52:54;100572.31;;;11.00;100.00
46347;BME280;32057;47.830;19.046;2023-06-04T04:55:19;100574.22;;;11.07;100.00
46347;BME280;32057;47.830;19.046;2023-06-04T04:57:44;100578.81;;;11.19;100.00
46347;BME280;32057;47.830;19.046;2023-06-04T05:00:10;100567.91;;;11.36;100.00
46347;BME280;32057;47.830;19.046;2023-06-04T05:02:36;100575.31;;;11.59;100.00
46347;BME280;32057;47.830;19.046;2023-06-04T05:05:03;100577.44;;;11.79;100.00
46347;BME280;32057;47.830;19.046;2023-06-04T05:07:28;100577.81;;;11.97;100.00
46347;BME280;32057;47.830;19.046;2023-06-04T05:09:54;100577.31;;;12.18;100.00
46347;BME280;32057;47.830;19.046;2023-06-04T05:12:19;100581.19;;;12.42;100.00
46347;BME280;32057;47.830;19.046;2023-06-04T05:14:45;100575.41;;;12.60;100.00
46347;BME280;32057;47.830;19.046;2023-06-04T05:17:11;100575.50;;;12.66;100.00
46347;BME280;32057;47.830;19.046;2023-06-04T05:19:38;100568.72;;;12.77;100.00
46347;BME280;32057;47.830;19.046;2023-06-04T05:22:03;100574.97;;;12.87;100.00
46347;BME280;32057;47.830;19.046;2023-06-04T05:24:30;100578.53;;;12.93;100.00
46347;BME280;32057;47.830;19.046;2023-06-04T05:26:56;100579.53;;;13.00;100.00
46347;BME280;32057;47.830;19.046;2023-06-04T05:29:23;100584.81;;;13.05;100.00
46347;BME280;32057;47.830;19.046;2023-06-04T05:31:48;100587.50;;;13.11;100.00
46347;BME280;32057;47.830;19.046;2023-06-04T05:34:14;100584.94;;;13.14;95.28
46347;BME280;32057;47.830;19.046;2023-06-04T05:36:42;100583.28;;;13.21;98.53
46347;BME280;32057;47.830;19.046;2023-06-04T05:39:07;100589.53;;;13.30;98.96
46347;BME280;32057;47.830;19.046;2023-06-04T05:41:34;100588.91;;;13.50;100.00
46347;BME280;32057;47.830;19.046;2023-06-04T05:43:59;100587.50;;;13.80;100.00
46347;BME280;32057;47.830;19.046;2023-06-04T05:46:25;100586.06;;;14.06;100.00
46347;BME280;32057;47.830;19.046;2023-06-04T05:48:50;100575.81;;;14.28;99.52
46347;BME280;32057;47.830;19.046;2023-06-04T05:51:16;100580.28;;;14.38;93.62
46347;BME280;32057;47.830;19.046;2023-06-04T05:53:41;100580.41;;;14.52;95.38
46347;BME280;32057;47.830;19.046;2023-06-04T05:56:07;100583.22;;;14.75;95.27
46347;BME280;32057;47.830;19.046;2023-06-04T05:58:33;100585.06;;;14.91;91.10
46347;BME280;32057;47.830;19.046;2023-06-04T06:00:59;100590.47;;;15.19;91.65
46347;BME280;32057;47.830;19.046;2023-06-04T06:03:25;100582.72;;;15.36;81.29
46347;BME280;32057;47.830;19.046;2023-06-04T06:05:52;100587.13;;;15.42;80.10
46347;BME280;32057;47.830;19.046;2023-06-04T06:08:19;100588.84;;;15.40;77.95
46347;BME280;32057;47.830;19.046;2023-06-04T06:10:45;100595.84;;;15.41;74.76
46347;BME280;32057;47.830;19.046;2023-06-04T06:13:11;100595.81;;;15.39;78.24
46347;BME280;32057;47.830;19.046;2023-06-04T06:15:36;100590.56;;;15.38;76.71
46347;BME280;32057;47.830;19.046;2023-06-04T06:18:02;100594.09;;;15.41;77.36
46347;BME280;32057;47.830;19.046;2023-06-04T06:20:27;100592.38;;;15.51;79.54
46347;BME280;32057;47.830;19.046;2023-06-04T06:22:54;100595.06;;;15.62;75.25
46347;BME280;32057;47.830;19.046;2023-06-04T06:25:19;100588.97;;;15.70;83.83
46347;BME280;32057;47.830;19.046;2023-06-04T06:27:45;100588.09;;;15.71;83.89
46347;BME280;32057;47.830;19.046;2023-06-04T06:30:11;100588.16;;;15.79;82.38
46347;BME280;32057;47.830;19.046;2023-06-04T06:32:37;100590.78;;;15.78;81.27
46347;BME280;32057;47.830;19.046;2023-06-04T06:35:03;100594.28;;;15.77;82.17
46347;BME280;32057;47.830;19.046;2023-06-04T06:37:29;100596.03;;;15.85;85.41
46347;BME280;32057;47.830;19.046;2023-06-04T06:39:54;100594.31;;;15.86;84.17
46347;BME280;32057;47.830;19.046;2023-06-04T06:42:20;100592.56;;;15.91;90.17
46347;BME280;32057;47.830;19.046;2023-06-04T06:44:45;100592.56;;;15.91;87.51
46347;BME280;32057;47.830;19.046;2023-06-04T06:47:11;100591.69;;;16.01;86.24
46347;BME280;32057;47.830;19.046;2023-06-04T06:49:39;100595.22;;;16.09;83.19
46347;BME280;32057;47.830;19.046;2023-06-04T06:52:05;100593.53;;;16.38;87.01
46347;BME280;32057;47.830;19.046;2023-06-04T06:54:31;100597.88;;;16.71;78.41
46347;BME280;32057;47.830;19.046;2023-06-04T06:56:56;100602.31;;;16.94;80.34
46347;BME280;32057;47.830;19.046;2023-06-04T06:59:22;100590.88;;;17.04;75.20
46347;BME280;32057;47.830;19.046;2023-06-04T07:01:48;100601.38;;;17.08;75.02
46347;BME280;32057;47.830;19.046;2023-06-04T07:04:13;100606.63;;;17.13;74.55
46347;BME280;32057;47.830;19.046;2023-06-04T07:06:39;100603.13;;;17.14;72.28
46347;BME280;32057;47.830;19.046;2023-06-04T07:09:05;100595.22;;;17.25;75.75
46347;BME280;32057;47.830;19.046;2023-06-04T07:11:31;100604.81;;;17.37;76.39
46347;BME280;32057;47.830;19.046;2023-06-04T07:13:57;100606.56;;;17.41;74.23
46347;BME280;32057;47.830;19.046;2023-06-04T07:16:22;100612.72;;;17.38;73.32
46347;BME280;32057;47.830;19.046;2023-06-04T07:18:48;100617.09;;;17.38;65.87
46347;BME280;32057;47.830;19.046;2023-06-04T07:21:16;100611.81;;;17.41;65.80
46347;BME280;32057;47.830;19.046;2023-06-04T07:23:44;100608.34;;;17.36;65.19
46347;BME280;32057;47.830;19.046;2023-06-04T07:26:12;100611.84;;;17.36;63.16
46347;BME280;32057;47.830;19.046;2023-06-04T07:28:37;100604.81;;;17.38;59.99
46347;BME280;32057;47.830;19.046;2023-06-04T07:31:03;100611.84;;;17.35;55.92
46347;BME280;32057;47.830;19.046;2023-06-04T07:33:28;100608.34;;;17.36;59.50
46347;BME280;32057;47.830;19.046;2023-06-04T07:35:54;100603.94;;;17.42;59.58
46347;BME280;32057;47.830;19.046;2023-06-04T07:38:19;100602.13;;;17.49;63.58
46347;BME280;32057;47.830;19.046;2023-06-04T07:40:45;100601.25;;;17.56;59.91
46347;BME280;32057;47.830;19.046;2023-06-04T07:43:12;100603.88;;;17.56;56.87
46347;BME280;32057;47.830;19.046;2023-06-04T07:45:38;100605.59;;;17.65;57.21
46347;BME280;32057;47.830;19.046;2023-06-04T07:48:03;100605.56;;;17.76;58.76
46347;BME280;32057;47.830;19.046;2023-06-04T07:50:29;100623.09;;;17.80;62.16
46347;BME280;32057;47.830;19.046;2023-06-04T07:52:56;100616.06;;;17.86;60.79
46347;BME280;32057;47.830;19.046;2023-06-04T07:55:22;100609.84;;;17.98;58.85
46347;BME280;32057;47.830;19.046;2023-06-04T07:57:47;100610.63;;;18.16;60.06
46347;BME280;32057;47.830;19.046;2023-06-04T08:00:13;100615.81;;;18.28;58.91
46347;BME280;32057;47.830;19.046;2023-06-04T08:02:39;100614.09;;;18.21;56.13
46347;BME280;32057;47.830;19.046;2023-06-04T08:05:05;100614.06;;;18.27;59.03
46347;BME280;32057;47.830;19.046;2023-06-04T08:07:30;100619.38;;;18.24;57.57
46347;BME280;32057;47.830;19.046;2023-06-04T08:09:56;100620.19;;;18.32;55.76
46347;BME280;32057;47.830;19.046;2023-06-04T08:12:22;100621.91;;;18.33;53.62
46347;BME280;32057;47.830;19.046;2023-06-04T08:14:48;100617.53;;;18.32;55.28
46347;BME280;32057;47.830;19.046;2023-06-04T08:17:15;100617.53;;;18.32;54.11
46347;BME280;32057;47.830;19.046;2023-06-04T08:19:40;100621.09;;;18.26;53.00
46347;BME280;32057;47.830;19.046;2023-06-04T08:22:06;100625.50;;;18.26;54.27
46347;BME280;32057;47.830;19.046;2023-06-04T08:24:31;100625.41;;;18.35;56.69
46347;BME280;32057;47.830;19.046;2023-06-04T08:26:57;100627.09;;;18.48;59.55
46347;BME280;32057;47.830;19.046;2023-06-04T08:29:22;100614.78;;;18.50;56.34
46347;BME280;32057;47.830;19.046;2023-06-04T08:31:47;100620.91;;;18.54;59.40
46347;BME280;32057;47.830;19.046;2023-06-04T08:34:13;100626.97;;;18.61;60.31
46347;BME280;32057;47.830;19.046;2023-06-04T08:36:38;100627.03;;;18.58;54.50
46347;BME280;32057;47.830;19.046;2023-06-04T08:39:04;100632.28;;;18.56;54.44
46347;BME280;32057;47.830;19.046;2023-06-04T08:41:45;100632.28;;;18.56;54.15
46347;BME280;32057;47.830;19.046;2023-06-04T08:44:16;100636.72;;;18.54;58.28
46347;BME280;32057;47.830;19.046;2023-06-04T08:46:43;100638.53;;;18.44;55.45
46347;BME280;32057;47.830;19.046;2023-06-04T08:49:09;100631.47;;;18.48;59.39
46347;BME280;32057;47.830;19.046;2023-06-04T08:51:37;100636.75;;;18.48;57.46
46347;BME280;32057;47.830;19.046;2023-06-04T08:54:06;100638.47;;;18.54;56.62
46347;BME280;32057;47.830;19.046;2023-06-04T08:56:33;100641.13;;;18.50;56.37
46347;BME280;32057;47.830;19.046;2023-06-04T08:59:04;100634.94;;;18.53;58.07
46347;BME280;32057;47.830;19.046;2023-06-04T09:01:31;100634.94;;;18.53;60.41
46347;BME280;32057;47.830;19.046;2023-06-04T09:03:59;100634.94;;;18.59;58.98
46347;BME280;32057;47.830;19.046;2023-06-04T09:06:26;100630.53;;;18.57;60.00
46347;BME280;32057;47.830;19.046;2023-06-04T09:08:54;100633.22;;;18.49;58.50
46347;BME280;32057;47.830;19.046;2023-06-04T09:11:21;100632.41;;;18.42;58.88
46347;BME280;32057;47.830;19.046;2023-06-04T09:13:47;100631.53;;;18.42;54.34
46347;BME280;32057;47.830;19.046;2023-06-04T09:16:13;100628.84;;;18.48;55.90
46347;BME280;32057;47.830;19.046;2023-06-04T09:18:39;100623.47;;;18.59;55.66
46347;BME280;32057;47.830;19.046;2023-06-04T09:21:06;100638.31;;;18.74;58.35
46347;BME280;32057;47.830;19.046;2023-06-04T09:23:46;100630.28;;;18.92;56.78
46347;BME280;32057;47.830;19.046;2023-06-04T09:26:13;100628.38;;;19.05;55.84
46347;BME280;32057;47.830;19.046;2023-06-04T09:28:40;100630.94;;;19.16;52.94
46347;BME280;32057;47.830;19.046;2023-06-04T09:31:16;100632.72;;;19.12;49.53
46347;BME280;32057;47.830;19.046;2023-06-04T09:33:47;100621.25;;;19.13;52.44
46347;BME280;32057;47.830;19.046;2023-06-04T09:36:13;100630.00;;;19.18;54.77
46347;BME280;32057;47.830;19.046;2023-06-04T09:38:39;100625.59;;;19.19;55.32
46347;BME280;32057;47.830;19.046;2023-06-04T09:41:11;100636.22;;;19.16;52.23
46347;BME280;32057;47.830;19.046;2023-06-04T09:43:36;100637.94;;;19.18;51.50
46347;BME280;32057;47.830;19.046;2023-06-04T09:46:09;100622.09;;;19.21;54.20
46347;BME280;32057;47.830;19.046;2023-06-04T09:48:36;100624.72;;;19.21;53.15
46347;BME280;32057;47.830;19.046;2023-06-04T09:51:12;100629.88;;;19.30;57.27
46347;BME280;32057;47.830;19.046;2023-06-04T09:53:38;100622.75;;;19.39;55.79
46347;BME280;32057;47.830;19.046;2023-06-04T09:56:05;100628.00;;;19.43;54.48
46347;BME280;32057;47.830;19.046;2023-06-04T09:58:36;100626.19;;;19.47;54.43
46347;BME280;32057;47.830;19.046;2023-06-04T10:01:05;100620.81;;;19.55;51.08
46347;BME280;32057;47.830;19.046;2023-06-04T10:03:35;100627.88;;;19.53;50.50
46347;BME280;32057;47.830;19.046;2023-06-04T10:06:03;100628.56;;;19.67;53.44
46347;BME280;32057;47.830;19.046;2023-06-04T10:08:31;100634.63;;;19.80;53.76
46347;BME280;32057;47.830;19.046;2023-06-04T10:10:59;100634.47;;;19.92;53.72
46347;BME280;32057;47.830;19.046;2023-06-04T10:13:30;100630.72;;;20.08;51.77
46347;BME280;32057;47.830;19.046;2023-06-04T10:15:57;100635.66;;;20.33;49.31
46347;BME280;32057;47.830;19.046;2023-06-04T10:18:24;100634.75;;;20.34;49.48
46347;BME280;32057;47.830;19.046;2023-06-04T10:20:53;100632.22;;;20.25;48.71
46347;BME280;32057;47.830;19.046;2023-06-04T10:23:18;100636.66;;;20.24;49.17
46347;BME280;32057;47.830;19.046;2023-06-04T10:25:50;100634.81;;;20.29;50.13
46347;BME280;32057;47.830;19.046;2023-06-04T10:28:18;100635.69;;;20.30;47.33
46347;BME280;32057;47.830;19.046;2023-06-04T10:30:44;100631.81;;;20.53;45.81
46347;BME280;32057;47.830;19.046;2023-06-04T10:33:10;100630.72;;;20.69;44.44
46347;BME280;32057;47.830;19.046;2023-06-04T10:35:36;100632.88;;;20.97;48.68
46347;BME280;32057;47.830;19.046;2023-06-04T10:38:06;100625.59;;;21.11;47.10
46347;BME280;32057;47.830;19.046;2023-06-04T10:40:33;100624.94;;;20.97;45.02
46347;BME280;32057;47.830;19.046;2023-06-04T10:43:07;100623.81;;;21.10;47.09
46347;BME280;32057;47.830;19.046;2023-06-04T10:45:33;100629.66;;;21.29;50.29
46347;BME280;32057;47.830;19.046;2023-06-04T10:48:10;100616.31;;;21.35;44.96
46347;BME280;32057;47.830;19.046;2023-06-04T10:50:48;100619.34;;;21.60;44.38
46347;BME280;32057;47.830;19.046;2023-06-04T10:53:14;100622.47;;;21.81;47.85
46347;BME280;32057;47.830;19.046;2023-06-04T10:55:49;100616.94;;;21.90;44.47
46347;BME280;32057;47.830;19.046;2023-06-04T10:58:15;100615.09;;;21.95;42.11
46347;BME280;32057;47.830;19.046;2023-06-04T11:00:45;100619.78;;;22.23;44.89
46347;BME280;32057;47.830;19.046;2023-06-04T11:03:12;100611.47;;;22.38;40.80
46347;BME280;32057;47.830;19.046;2023-06-04T11:05:43;100611.25;;;22.47;41.77
46347;BME280;32057;47.830;19.046;2023-06-04T11:08:09;100609.91;;;22.67;41.87
46347;BME280;32057;47.830;19.046;2023-06-04T11:10:45;100605.38;;;22.71;41.64
46347;BME280;32057;47.830;19.046;2023-06-04T11:13:11;100604.47;;;22.72;39.75
46347;BME280;32057;47.830;19.046;2023-06-04T11:15:41;100613.06;;;22.45;40.97
46347;BME280;32057;47.830;19.046;2023-06-04T11:18:07;100607.66;;;22.50;44.38
46347;BME280;32057;47.830;19.046;2023-06-04T11:20:32;100605.69;;;22.21;43.50
46347;BME280;32057;47.830;19.046;2023-06-04T11:22:59;100603.88;;;22.23;40.81
46347;BME280;32057;47.830;19.046;2023-06-04T11:25:29;100606.00;;;22.44;42.70
46347;BME280;32057;47.830;19.046;2023-06-04T11:27:56;100603.34;;;22.44;39.20
46347;BME280;32057;47.830;19.046;2023-06-04T11:30:23;100601.16;;;22.62;42.46
46347;BME280;32057;47.830;19.046;2023-06-04T11:32:50;100598.13;;;22.77;42.60
46347;BME280;32057;47.830;19.046;2023-06-04T11:35:15;100591.16;;;22.73;40.95
46347;BME280;32057;47.830;19.046;2023-06-04T11:37:41;100595.75;;;22.66;43.86
46347;BME280;32057;47.830;19.046;2023-06-04T11:40:19;100592.59;;;22.51;43.27
46347;BME280;32057;47.830;19.046;2023-06-04T11:42:49;100594.69;;;22.38;45.43
46347;BME280;32057;47.830;19.046;2023-06-04T11:45:17;100596.81;;;22.22;43.00
46347;BME280;32057;47.830;19.046;2023-06-04T11:47:51;100596.81;;;22.22;43.48
46347;BME280;32057;47.830;19.046;2023-06-04T11:50:17;100600.38;;;22.21;40.73
46347;BME280;32057;47.830;19.046;2023-06-04T11:52:43;100595.72;;;22.31;43.39
46347;BME280;32057;47.830;19.046;2023-06-04T11:55:12;100594.88;;;22.30;42.81
46347;BME280;32057;47.830;19.046;2023-06-04T11:57:38;100592.91;;;22.38;46.42
46347;BME280;32057;47.830;19.046;2023-06-04T12:00:06;100591.09;;;22.40;44.23
46347;BME280;32057;47.830;19.046;2023-06-04T12:02:38;100605.91;;;22.49;45.69
46347;BME280;32057;47.830;19.046;2023-06-04T12:05:30;100603.28;;;22.47;45.07
46347;BME280;32057;47.830;19.046;2023-06-04T12:08:16;100602.28;;;22.53;46.70
46347;BME280;32057;47.830;19.046;2023-06-04T12:10:43;100605.13;;;22.45;46.59
46347;BME280;32057;47.830;19.046;2023-06-04T12:13:09;100598.28;;;22.35;45.74
46347;BME280;32057;47.830;19.046;2023-06-04T12:15:35;100598.19;;;22.38;46.44
46347;BME280;32057;47.830;19.046;2023-06-04T12:18:01;100602.13;;;22.20;42.54
46347;BME280;32057;47.830;19.046;2023-06-04T12:20:54;100602.28;;;22.14;45.73
46347;BME280;32057;47.830;19.046;2023-06-04T12:23:20;100602.31;;;22.13;47.46
46347;BME280;32057;47.830;19.046;2023-06-04T12:25:50;100604.00;;;22.17;47.71
46347;BME280;32057;47.830;19.046;2023-06-04T12:28:19;100609.31;;;22.17;47.56
46347;BME280;32057;47.830;19.046;2023-06-04T12:30:44;100604.13;;;22.11;48.38
46347;BME280;32057;47.830;19.046;2023-06-04T12:33:11;100605.09;;;22.06;49.71
46347;BME280;32057;47.830;19.046;2023-06-04T12:35:36;100601.47;;;22.11;48.53
46347;BME280;32057;47.830;19.046;2023-06-04T12:38:03;100602.59;;;22.00;48.68